sensor_id;sensor_type;location;lat;lon;timestamp;P1;durP1;ratioP1;P2;durP2;ratioP2
83659;SDS011;73632;50.808;3.422;2024-01-30T00:00:21;8.88;;;5.60;;
83659;SDS011;73632;50.808;3.422;2024-01-30T00:02:47;9.35;;;5.65;;
83659;SDS011;73632;50.808;3.422;2024-01-30T00:05:12;13.63;;;5.82;;
83659;SDS011;73632;50.808;3.422;2024-01-30T00:07:38;10.18;;;6.07;;
83659;SDS011;73632;50.808;3.422;2024-01-30T00:10:04;11.25;;;6.07;;
83659;SDS011;73632;50.808;3.422;2024-01-30T00:12:31;11.15;;;5.80;;
83659;SDS011;73632;50.808;3.422;2024-01-30T00:14:57;11.45;;;6.28;;
83659;SDS011;73632;50.808;3.422;2024-01-30T00:17:23;8.73;;;5.40;;
83659;SDS011;73632;50.808;3.422;2024-01-30T00:19:50;10.68;;;5.88;;
83659;SDS011;73632;50.808;3.422;2024-01-30T00:22:15;9.75;;;6.03;;
83659;SDS011;73632;50.808;3.422;2024-01-30T00:24:41;11.73;;;5.65;;
83659;SDS011;73632;50.808;3.422;2024-01-30T00:27:07;10.40;;;5.78;;
83659;SDS011;73632;50.808;3.422;2024-01-30T00:29:33;10.75;;;6.10;;
83659;SDS011;73632;50.808;3.422;2024-01-30T00:31:59;10.25;;;5.18;;
83659;SDS011;73632;50.808;3.422;2024-01-30T00:34:25;9.18;;;5.82;;
83659;SDS011;73632;50.808;3.422;2024-01-30T00:36:50;19.08;;;6.18;;
83659;SDS011;73632;50.808;3.422;2024-01-30T00:39:16;8.25;;;5.47;;
83659;SDS011;73632;50.808;3.422;2024-01-30T00:41:41;8.85;;;6.10;;
83659;SDS011;73632;50.808;3.422;2024-01-30T00:44:07;10.30;;;5.95;;
83659;SDS011;73632;50.808;3.422;2024-01-30T00:46:32;13.93;;;6.25;;
83659;SDS011;73632;50.808;3.422;2024-01-30T00:48:58;14.45;;;5.72;;
83659;SDS011;73632;50.808;3.422;2024-01-30T00:51:23;10.77;;;6.57;;
83659;SDS011;73632;50.808;3.422;2024-01-30T00:53:49;13.93;;;6.55;;
83659;SDS011;73632;50.808;3.422;2024-01-30T00:56:14;13.05;;;6.72;;
83659;SDS011;73632;50.808;3.422;2024-01-30T00:58:43;9.90;;;6.00;;
83659;SDS011;73632;50.808;3.422;2024-01-30T01:01:08;10.20;;;5.72;;
83659;SDS011;73632;50.808;3.422;2024-01-30T01:03:34;10.40;;;5.50;;
83659;SDS011;73632;50.808;3.422;2024-01-30T01:05:59;10.88;;;6.20;;
83659;SDS011;73632;50.808;3.422;2024-01-30T01:08:25;9.10;;;5.78;;
83659;SDS011;73632;50.808;3.422;2024-01-30T01:10:50;12.30;;;6.07;;
83659;SDS011;73632;50.808;3.422;2024-01-30T01:13:16;8.55;;;5.70;;
83659;SDS011;73632;50.808;3.422;2024-01-30T01:15:42;9.05;;;5.40;;
83659;SDS011;73632;50.808;3.422;2024-01-30T01:18:08;9.55;;;6.15;;
83659;SDS011;73632;50.808;3.422;2024-01-30T01:20:33;9.57;;;6.28;;
83659;SDS011;73632;50.808;3.422;2024-01-30T01:22:59;11.63;;;6.15;;
83659;SDS011;73632;50.808;3.422;2024-01-30T01:25:24;11.82;;;6.20;;
83659;SDS011;73632;50.808;3.422;2024-01-30T01:27:49;9.93;;;6.55;;
83659;SDS011;73632;50.808;3.422;2024-01-30T01:30:17;13.77;;;6.50;;
83659;SDS011;73632;50.808;3.422;2024-01-30T01:32:49;9.85;;;6.30;;
83659;SDS011;73632;50.808;3.422;2024-01-30T01:35:22;11.88;;;6.97;;
83659;SDS011;73632;50.808;3.422;2024-01-30T01:37:49;10.23;;;6.30;;
83659;SDS011;73632;50.808;3.422;2024-01-30T01:40:20;11.63;;;6.22;;
83659;SDS011;73632;50.808;3.422;2024-01-30T01:42:49;13.43;;;7.15;;
83659;SDS011;73632;50.808;3.422;2024-01-30T01:45:16;11.57;;;6.40;;
83659;SDS011;73632;50.808;3.422;2024-01-30T01:47:41;11.20;;;6.65;;
83659;SDS011;73632;50.808;3.422;2024-01-30T01:50:07;10.77;;;5.97;;
83659;SDS011;73632;50.808;3.422;2024-01-30T01:52:33;10.00;;;6.03;;
83659;SDS011;73632;50.808;3.422;2024-01-30T01:54:59;11.50;;;6.60;;
83659;SDS011;73632;50.808;3.422;2024-01-30T01:57:25;11.57;;;6.38;;
83659;SDS011;73632;50.808;3.422;2024-01-30T01:59:50;15.38;;;5.90;;
83659;SDS011;73632;50.808;3.422;2024-01-30T02:02:16;10.52;;;6.20;;
83659;SDS011;73632;50.808;3.422;2024-01-30T02:04:43;15.85;;;6.68;;
83659;SDS011;73632;50.808;3.422;2024-01-30T02:07:09;10.25;;;6.40;;
83659;SDS011;73632;50.808;3.422;2024-01-30T02:09:35;11.35;;;6.22;;
83659;SDS011;73632;50.808;3.422;2024-01-30T02:12:00;9.65;;;6.22;;
83659;SDS011;73632;50.808;3.422;2024-01-30T02:14:26;9.90;;;5.90;;
83659;SDS011;73632;50.808;3.422;2024-01-30T02:16:51;10.38;;;6.45;;
83659;SDS011;73632;50.808;3.422;2024-01-30T02:19:16;10.55;;;5.95;;
83659;SDS011;73632;50.808;3.422;2024-01-30T02:21:42;13.57;;;6.82;;
83659;SDS011;73632;50.808;3.422;2024-01-30T02:24:08;12.05;;;6.25;;
83659;SDS011;73632;50.808;3.422;2024-01-30T02:26:33;13.15;;;6.68;;
83659;SDS011;73632;50.808;3.422;2024-01-30T02:28:58;14.95;;;6.68;;
83659;SDS011;73632;50.808;3.422;2024-01-30T02:31:25;12.43;;;6.72;;
83659;SDS011;73632;50.808;3.422;2024-01-30T02:33:50;12.57;;;7.05;;
83659;SDS011;73632;50.808;3.422;2024-01-30T02:36:16;13.55;;;6.95;;
83659;SDS011;73632;50.808;3.422;2024-01-30T02:38:41;11.38;;;6.40;;
83659;SDS011;73632;50.808;3.422;2024-01-30T02:41:06;12.77;;;6.60;;
83659;SDS011;73632;50.808;3.422;2024-01-30T02:43:32;14.13;;;6.68;;
83659;SDS011;73632;50.808;3.422;2024-01-30T02:45:57;10.63;;;6.57;;
83659;SDS011;73632;50.808;3.422;2024-01-30T02:48:24;11.63;;;6.28;;
83659;SDS011;73632;50.808;3.422;2024-01-30T02:50:50;12.63;;;6.57;;
83659;SDS011;73632;50.808;3.422;2024-01-30T02:53:15;13.90;;;7.32;;
83659;SDS011;73632;50.808;3.422;2024-01-30T02:55:40;12.05;;;6.35;;
83659;SDS011;73632;50.808;3.422;2024-01-30T02:58:06;15.38;;;6.53;;
83659;SDS011;73632;50.808;3.422;2024-01-30T03:00:31;12.75;;;7.00;;
83659;SDS011;73632;50.808;3.422;2024-01-30T03:02:57;11.57;;;6.80;;
83659;SDS011;73632;50.808;3.422;2024-01-30T03:05:22;11.20;;;6.75;;
83659;SDS011;73632;50.808;3.422;2024-01-30T03:07:47;9.88;;;5.80;;
83659;SDS011;73632;50.808;3.422;2024-01-30T03:10:13;10.43;;;6.30;;
83659;SDS011;73632;50.808;3.422;2024-01-30T03:12:38;9.93;;;6.03;;
83659;SDS011;73632;50.808;3.422;2024-01-30T03:15:04;10.15;;;6.25;;
83659;SDS011;73632;50.808;3.422;2024-01-30T03:17:29;9.45;;;6.72;;
83659;SDS011;73632;50.808;3.422;2024-01-30T03:19:55;12.23;;;6.53;;
83659;SDS011;73632;50.808;3.422;2024-01-30T03:22:20;13.70;;;6.75;;
83659;SDS011;73632;50.808;3.422;2024-01-30T03:24:45;10.18;;;6.30;;
83659;SDS011;73632;50.808;3.422;2024-01-30T03:27:11;11.43;;;6.28;;
83659;SDS011;73632;50.808;3.422;2024-01-30T03:29:36;11.88;;;6.68;;
83659;SDS011;73632;50.808;3.422;2024-01-30T03:32:02;12.00;;;6.70;;
83659;SDS011;73632;50.808;3.422;2024-01-30T03:34:29;9.95;;;6.35;;
83659;SDS011;73632;50.808;3.422;2024-01-30T03:36:54;9.65;;;6.63;;
83659;SDS011;73632;50.808;3.422;2024-01-30T03:39:19;9.30;;;6.68;;
83659;SDS011;73632;50.808;3.422;2024-01-30T03:41:45;17.67;;;6.13;;
83659;SDS011;73632;50.808;3.422;2024-01-30T03:44:10;11.23;;;6.63;;
83659;SDS011;73632;50.808;3.422;2024-01-30T03:46:36;9.50;;;6.55;;
83659;SDS011;73632;50.808;3.422;2024-01-30T03:49:01;13.65;;;6.55;;
83659;SDS011;73632;50.808;3.422;2024-01-30T03:51:27;11.80;;;6.75;;
83659;SDS011;73632;50.808;3.422;2024-01-30T03:53:53;11.00;;;6.78;;
83659;SDS011;73632;50.808;3.422;2024-01-30T03:56:18;12.32;;;6.22;;
83659;SDS011;73632;50.808;3.422;2024-01-30T03:58:43;8.93;;;5.85;;
83659;SDS011;73632;50.808;3.422;2024-01-30T04:01:12;11.60;;;6.70;;
83659;SDS011;73632;50.808;3.422;2024-01-30T04:03:39;10.73;;;6.35;;
83659;SDS011;73632;50.808;3.422;2024-01-30T04:06:04;9.35;;;6.60;;
83659;SDS011;73632;50.808;3.422;2024-01-30T04:08:30;15.35;;;5.95;;
83659;SDS011;73632;50.808;3.422;2024-01-30T04:10:55;13.20;;;6.63;;
83659;SDS011;73632;50.808;3.422;2024-01-30T04:13:20;10.95;;;6.40;;
83659;SDS011;73632;50.808;3.422;2024-01-30T04:15:46;12.82;;;6.47;;
83659;SDS011;73632;50.808;3.422;2024-01-30T04:18:11;12.27;;;6.55;;
83659;SDS011;73632;50.808;3.422;2024-01-30T04:20:37;14.68;;;7.13;;
83659;SDS011;73632;50.808;3.422;2024-01-30T04:23:02;10.77;;;6.13;;
83659;SDS011;73632;50.808;3.422;2024-01-30T04:25:27;10.18;;;6.50;;
83659;SDS011;73632;50.808;3.422;2024-01-30T04:27:53;10.15;;;5.85;;
83659;SDS011;73632;50.808;3.422;2024-01-30T04:30:18;10.57;;;6.40;;
83659;SDS011;73632;50.808;3.422;2024-01-30T04:32:44;9.93;;;6.35;;
83659;SDS011;73632;50.808;3.422;2024-01-30T04:35:09;8.77;;;5.80;;
83659;SDS011;73632;50.808;3.422;2024-01-30T04:37:35;13.98;;;6.43;;
83659;SDS011;73632;50.808;3.422;2024-01-30T04:40:00;12.13;;;6.25;;
83659;SDS011;73632;50.808;3.422;2024-01-30T04:42:25;9.52;;;6.50;;
83659;SDS011;73632;50.808;3.422;2024-01-30T04:44:51;14.55;;;6.05;;
83659;SDS011;73632;50.808;3.422;2024-01-30T04:47:16;18.58;;;6.90;;
83659;SDS011;73632;50.808;3.422;2024-01-30T04:49:42;11.68;;;6.70;;
83659;SDS011;73632;50.808;3.422;2024-01-30T04:52:07;12.90;;;6.38;;
83659;SDS011;73632;50.808;3.422;2024-01-30T04:54:34;10.93;;;6.10;;
83659;SDS011;73632;50.808;3.422;2024-01-30T04:57:00;13.73;;;6.35;;
83659;SDS011;73632;50.808;3.422;2024-01-30T04:59:25;11.23;;;6.10;;
83659;SDS011;73632;50.808;3.422;2024-01-30T05:01:51;11.68;;;6.70;;
83659;SDS011;73632;50.808;3.422;2024-01-30T05:04:16;9.95;;;6.25;;
83659;SDS011;73632;50.808;3.422;2024-01-30T05:06:42;11.70;;;6.68;;
83659;SDS011;73632;50.808;3.422;2024-01-30T05:09:08;9.35;;;6.10;;
83659;SDS011;73632;50.808;3.422;2024-01-30T05:11:40;10.15;;;6.40;;
83659;SDS011;73632;50.808;3.422;2024-01-30T05:14:06;9.57;;;6.07;;
83659;SDS011;73632;50.808;3.422;2024-01-30T05:16:32;12.15;;;6.43;;
83659;SDS011;73632;50.808;3.422;2024-01-30T05:18:58;11.75;;;6.40;;
83659;SDS011;73632;50.808;3.422;2024-01-30T05:21:23;9.70;;;6.38;;
83659;SDS011;73632;50.808;3.422;2024-01-30T05:23:49;9.27;;;5.90;;
83659;SDS011;73632;50.808;3.422;2024-01-30T05:26:14;11.27;;;6.45;;
83659;SDS011;73632;50.808;3.422;2024-01-30T05:28:40;14.20;;;7.30;;
83659;SDS011;73632;50.808;3.422;2024-01-30T05:31:05;12.57;;;6.85;;
83659;SDS011;73632;50.808;3.422;2024-01-30T05:33:30;11.65;;;6.60;;
83659;SDS011;73632;50.808;3.422;2024-01-30T05:35:56;13.15;;;6.60;;
83659;SDS011;73632;50.808;3.422;2024-01-30T05:38:21;12.88;;;6.63;;
83659;SDS011;73632;50.808;3.422;2024-01-30T05:40:47;14.63;;;6.35;;
83659;SDS011;73632;50.808;3.422;2024-01-30T05:43:12;13.48;;;6.40;;
83659;SDS011;73632;50.808;3.422;2024-01-30T05:45:38;12.43;;;6.45;;
83659;SDS011;73632;50.808;3.422;2024-01-30T05:48:04;12.70;;;6.13;;
83659;SDS011;73632;50.808;3.422;2024-01-30T05:50:29;12.07;;;6.63;;
83659;SDS011;73632;50.808;3.422;2024-01-30T05:52:55;10.88;;;6.53;;
83659;SDS011;73632;50.808;3.422;2024-01-30T05:55:21;9.15;;;6.20;;
83659;SDS011;73632;50.808;3.422;2024-01-30T05:57:46;11.70;;;6.03;;
83659;SDS011;73632;50.808;3.422;2024-01-30T06:00:11;11.98;;;6.10;;
83659;SDS011;73632;50.808;3.422;2024-01-30T06:02:37;15.10;;;6.18;;
83659;SDS011;73632;50.808;3.422;2024-01-30T06:05:03;10.65;;;6.13;;
83659;SDS011;73632;50.808;3.422;2024-01-30T06:07:28;9.48;;;6.25;;
83659;SDS011;73632;50.808;3.422;2024-01-30T06:09:54;13.93;;;7.20;;
83659;SDS011;73632;50.808;3.422;2024-01-30T06:12:19;12.18;;;6.15;;
83659;SDS011;73632;50.808;3.422;2024-01-30T06:14:45;10.70;;;5.82;;
83659;SDS011;73632;50.808;3.422;2024-01-30T06:17:10;14.65;;;6.47;;
83659;SDS011;73632;50.808;3.422;2024-01-30T06:19:37;8.40;;;5.68;;
83659;SDS011;73632;50.808;3.422;2024-01-30T06:22:03;12.95;;;6.20;;
83659;SDS011;73632;50.808;3.422;2024-01-30T06:24:29;15.45;;;5.68;;
83659;SDS011;73632;50.808;3.422;2024-01-30T06:26:55;9.60;;;6.13;;
83659;SDS011;73632;50.808;3.422;2024-01-30T06:29:20;13.00;;;6.47;;
83659;SDS011;73632;50.808;3.422;2024-01-30T06:31:46;9.75;;;5.55;;
83659;SDS011;73632;50.808;3.422;2024-01-30T06:34:11;13.10;;;6.03;;
83659;SDS011;73632;50.808;3.422;2024-01-30T06:36:37;9.85;;;5.85;;
83659;SDS011;73632;50.808;3.422;2024-01-30T06:39:03;9.38;;;5.53;;
83659;SDS011;73632;50.808;3.422;2024-01-30T06:41:28;16.02;;;6.70;;
83659;SDS011;73632;50.808;3.422;2024-01-30T06:43:54;10.07;;;6.03;;
83659;SDS011;73632;50.808;3.422;2024-01-30T06:46:20;10.00;;;5.80;;
83659;SDS011;73632;50.808;3.422;2024-01-30T06:48:45;12.40;;;5.47;;
83659;SDS011;73632;50.808;3.422;2024-01-30T06:51:11;13.20;;;6.93;;
83659;SDS011;73632;50.808;3.422;2024-01-30T06:53:37;12.50;;;6.05;;
83659;SDS011;73632;50.808;3.422;2024-01-30T06:56:03;11.98;;;6.10;;
83659;SDS011;73632;50.808;3.422;2024-01-30T06:58:28;12.80;;;5.88;;
83659;SDS011;73632;50.808;3.422;2024-01-30T07:00:54;15.25;;;6.30;;
83659;SDS011;73632;50.808;3.422;2024-01-30T07:03:20;15.40;;;5.93;;
83659;SDS011;73632;50.808;3.422;2024-01-30T07:05:45;11.60;;;6.00;;
83659;SDS011;73632;50.808;3.422;2024-01-30T07:08:10;11.60;;;5.97;;
83659;SDS011;73632;50.808;3.422;2024-01-30T07:10:36;15.45;;;6.28;;
83659;SDS011;73632;50.808;3.422;2024-01-30T07:13:01;12.52;;;6.00;;
83659;SDS011;73632;50.808;3.422;2024-01-30T07:15:27;13.18;;;6.05;;
83659;SDS011;73632;50.808;3.422;2024-01-30T07:17:52;13.55;;;6.18;;
83659;SDS011;73632;50.808;3.422;2024-01-30T07:20:18;13.77;;;6.00;;
83659;SDS011;73632;50.808;3.422;2024-01-30T07:22:45;13.73;;;5.72;;
83659;SDS011;73632;50.808;3.422;2024-01-30T07:25:10;11.52;;;6.03;;
83659;SDS011;73632;50.808;3.422;2024-01-30T07:27:36;12.65;;;6.38;;
83659;SDS011;73632;50.808;3.422;2024-01-30T07:30:01;15.38;;;6.32;;
83659;SDS011;73632;50.808;3.422;2024-01-30T07:32:27;18.08;;;7.22;;
83659;SDS011;73632;50.808;3.422;2024-01-30T07:34:52;14.25;;;6.78;;
83659;SDS011;73632;50.808;3.422;2024-01-30T07:37:18;15.77;;;6.45;;
83659;SDS011;73632;50.808;3.422;2024-01-30T07:39:44;10.38;;;6.20;;
83659;SDS011;73632;50.808;3.422;2024-01-30T07:42:09;11.25;;;6.18;;
83659;SDS011;73632;50.808;3.422;2024-01-30T07:44:35;10.20;;;6.20;;
83659;SDS011;73632;50.808;3.422;2024-01-30T07:47:00;14.82;;;7.07;;
83659;SDS011;73632;50.808;3.422;2024-01-30T07:49:27;17.73;;;7.78;;
83659;SDS011;73632;50.808;3.422;2024-01-30T07:51:53;16.00;;;7.88;;
83659;SDS011;73632;50.808;3.422;2024-01-30T07:54:18;21.35;;;6.57;;
83659;SDS011;73632;50.808;3.422;2024-01-30T07:56:44;15.13;;;6.70;;
83659;SDS011;73632;50.808;3.422;2024-01-30T07:59:10;23.98;;;6.95;;
83659;SDS011;73632;50.808;3.422;2024-01-30T08:01:37;15.68;;;6.97;;
83659;SDS011;73632;50.808;3.422;2024-01-30T08:04:04;14.27;;;6.60;;
83659;SDS011;73632;50.808;3.422;2024-01-30T08:06:29;13.18;;;7.45;;
83659;SDS011;73632;50.808;3.422;2024-01-30T08:08:55;17.52;;;7.60;;
83659;SDS011;73632;50.808;3.422;2024-01-30T08:11:22;16.58;;;8.50;;
83659;SDS011;73632;50.808;3.422;2024-01-30T08:13:51;14.52;;;7.38;;
83659;SDS011;73632;50.808;3.422;2024-01-30T08:16:17;11.95;;;7.22;;
83659;SDS011;73632;50.808;3.422;2024-01-30T08:18:42;17.90;;;7.60;;
83659;SDS011;73632;50.808;3.422;2024-01-30T08:21:08;16.35;;;8.43;;
83659;SDS011;73632;50.808;3.422;2024-01-30T08:23:34;13.45;;;7.55;;
83659;SDS011;73632;50.808;3.422;2024-01-30T08:25:59;21.42;;;7.72;;
83659;SDS011;73632;50.808;3.422;2024-01-30T08:28:25;17.10;;;8.15;;
83659;SDS011;73632;50.808;3.422;2024-01-30T08:30:51;18.35;;;7.35;;
83659;SDS011;73632;50.808;3.422;2024-01-30T08:33:17;15.98;;;7.78;;
83659;SDS011;73632;50.808;3.422;2024-01-30T08:35:45;16.67;;;8.20;;
83659;SDS011;73632;50.808;3.422;2024-01-30T08:38:10;17.20;;;7.90;;
83659;SDS011;73632;50.808;3.422;2024-01-30T08:40:37;14.90;;;7.18;;
83659;SDS011;73632;50.808;3.422;2024-01-30T08:43:03;14.55;;;6.50;;
83659;SDS011;73632;50.808;3.422;2024-01-30T08:45:29;16.35;;;6.82;;
83659;SDS011;73632;50.808;3.422;2024-01-30T08:47:55;21.30;;;6.20;;
83659;SDS011;73632;50.808;3.422;2024-01-30T08:50:21;27.33;;;5.47;;
83659;SDS011;73632;50.808;3.422;2024-01-30T08:52:46;16.50;;;3.90;;
83659;SDS011;73632;50.808;3.422;2024-01-30T08:55:11;15.00;;;4.32;;
83659;SDS011;73632;50.808;3.422;2024-01-30T08:57:37;15.20;;;3.38;;
83659;SDS011;73632;50.808;3.422;2024-01-30T09:00:03;10.85;;;3.00;;
83659;SDS011;73632;50.808;3.422;2024-01-30T09:02:31;20.58;;;3.33;;
83659;SDS011;73632;50.808;3.422;2024-01-30T09:04:57;10.98;;;3.60;;
83659;SDS011;73632;50.808;3.422;2024-01-30T09:07:22;7.85;;;2.80;;
83659;SDS011;73632;50.808;3.422;2024-01-30T09:09:48;11.57;;;2.53;;
83659;SDS011;73632;50.808;3.422;2024-01-30T09:12:14;10.57;;;2.10;;
83659;SDS011;73632;50.808;3.422;2024-01-30T09:14:39;5.10;;;1.38;;
83659;SDS011;73632;50.808;3.422;2024-01-30T09:17:06;14.65;;;1.70;;
83659;SDS011;73632;50.808;3.422;2024-01-30T09:19:31;15.55;;;2.83;;
83659;SDS011;73632;50.808;3.422;2024-01-30T09:21:56;8.75;;;1.42;;
83659;SDS011;73632;50.808;3.422;2024-01-30T09:24:22;10.85;;;2.22;;
83659;SDS011;73632;50.808;3.422;2024-01-30T09:26:47;11.88;;;1.90;;
83659;SDS011;73632;50.808;3.422;2024-01-30T09:29:13;10.20;;;1.73;;
83659;SDS011;73632;50.808;3.422;2024-01-30T09:31:38;12.55;;;2.08;;
83659;SDS011;73632;50.808;3.422;2024-01-30T09:34:03;13.50;;;1.90;;
83659;SDS011;73632;50.808;3.422;2024-01-30T09:36:29;9.43;;;1.75;;
83659;SDS011;73632;50.808;3.422;2024-01-30T09:38:54;5.28;;;1.17;;
83659;SDS011;73632;50.808;3.422;2024-01-30T09:41:20;5.65;;;1.10;;
83659;SDS011;73632;50.808;3.422;2024-01-30T09:43:49;8.30;;;1.15;;
83659;SDS011;73632;50.808;3.422;2024-01-30T09:46:16;8.85;;;1.38;;
83659;SDS011;73632;50.808;3.422;2024-01-30T09:48:43;5.05;;;1.38;;
83659;SDS011;73632;50.808;3.422;2024-01-30T09:51:11;5.15;;;1.10;;
83659;SDS011;73632;50.808;3.422;2024-01-30T09:53:40;3.20;;;1.35;;
83659;SDS011;73632;50.808;3.422;2024-01-30T09:56:07;3.50;;;0.82;;
83659;SDS011;73632;50.808;3.422;2024-01-30T09:58:32;7.32;;;1.40;;
83659;SDS011;73632;50.808;3.422;2024-01-30T10:00:58;7.40;;;1.33;;
83659;SDS011;73632;50.808;3.422;2024-01-30T10:03:24;6.75;;;1.40;;
83659;SDS011;73632;50.808;3.422;2024-01-30T10:05:50;6.07;;;1.08;;
83659;SDS011;73632;50.808;3.422;2024-01-30T10:08:17;6.35;;;1.70;;
83659;SDS011;73632;50.808;3.422;2024-01-30T10:10:49;8.20;;;1.63;;
83659;SDS011;73632;50.808;3.422;2024-01-30T10:13:15;7.82;;;1.33;;
83659;SDS011;73632;50.808;3.422;2024-01-30T10:15:41;10.00;;;1.05;;
83659;SDS011;73632;50.808;3.422;2024-01-30T10:18:06;3.67;;;1.02;;
83659;SDS011;73632;50.808;3.422;2024-01-30T10:20:33;4.78;;;1.15;;
83659;SDS011;73632;50.808;3.422;2024-01-30T10:22:59;4.93;;;1.00;;
83659;SDS011;73632;50.808;3.422;2024-01-30T10:25:25;3.65;;;1.10;;
83659;SDS011;73632;50.808;3.422;2024-01-30T10:27:54;11.32;;;1.00;;
83659;SDS011;73632;50.808;3.422;2024-01-30T10:30:20;8.38;;;1.30;;
83659;SDS011;73632;50.808;3.422;2024-01-30T10:32:46;7.55;;;1.05;;
83659;SDS011;73632;50.808;3.422;2024-01-30T10:35:12;4.63;;;1.17;;
83659;SDS011;73632;50.808;3.422;2024-01-30T10:37:37;9.98;;;1.45;;
83659;SDS011;73632;50.808;3.422;2024-01-30T10:40:03;6.18;;;0.88;;
83659;SDS011;73632;50.808;3.422;2024-01-30T10:42:31;6.45;;;1.45;;
83659;SDS011;73632;50.808;3.422;2024-01-30T10:47:31;5.88;;;1.42;;
83659;SDS011;73632;50.808;3.422;2024-01-30T10:49:59;7.97;;;1.33;;
83659;SDS011;73632;50.808;3.422;2024-01-30T10:52:26;5.07;;;1.00;;
83659;SDS011;73632;50.808;3.422;2024-01-30T10:54:55;12.20;;;1.30;;
83659;SDS011;73632;50.808;3.422;2024-01-30T10:57:22;4.25;;;1.23;;
83659;SDS011;73632;50.808;3.422;2024-01-30T10:59:49;13.82;;;1.40;;
83659;SDS011;73632;50.808;3.422;2024-01-30T11:02:16;3.97;;;1.02;;
83659;SDS011;73632;50.808;3.422;2024-01-30T11:04:42;4.45;;;1.40;;
83659;SDS011;73632;50.808;3.422;2024-01-30T11:07:17;7.90;;;1.50;;
83659;SDS011;73632;50.808;3.422;2024-01-30T11:09:52;4.65;;;1.05;;
83659;SDS011;73632;50.808;3.422;2024-01-30T11:12:22;3.97;;;1.20;;
83659;SDS011;73632;50.808;3.422;2024-01-30T11:14:49;5.22;;;0.88;;
83659;SDS011;73632;50.808;3.422;2024-01-30T11:17:15;5.63;;;0.80;;
83659;SDS011;73632;50.808;3.422;2024-01-30T11:19:41;13.73;;;1.00;;
83659;SDS011;73632;50.808;3.422;2024-01-30T11:22:07;10.25;;;1.50;;
83659;SDS011;73632;50.808;3.422;2024-01-30T11:24:38;8.75;;;1.58;;
83659;SDS011;73632;50.808;3.422;2024-01-30T11:27:10;11.95;;;2.25;;
83659;SDS011;73632;50.808;3.422;2024-01-30T11:29:35;11.32;;;2.95;;
83659;SDS011;73632;50.808;3.422;2024-01-30T11:32:01;8.52;;;1.85;;
83659;SDS011;73632;50.808;3.422;2024-01-30T11:34:27;6.72;;;0.95;;
83659;SDS011;73632;50.808;3.422;2024-01-30T11:36:57;8.43;;;1.13;;
83659;SDS011;73632;50.808;3.422;2024-01-30T11:39:24;5.40;;;0.85;;
83659;SDS011;73632;50.808;3.422;2024-01-30T11:41:51;4.95;;;1.00;;
83659;SDS011;73632;50.808;3.422;2024-01-30T11:44:18;9.07;;;1.17;;
83659;SDS011;73632;50.808;3.422;2024-01-30T11:46:45;9.35;;;1.40;;
83659;SDS011;73632;50.808;3.422;2024-01-30T11:49:15;10.77;;;2.22;;
83659;SDS011;73632;50.808;3.422;2024-01-30T11:51:41;20.65;;;4.25;;
83659;SDS011;73632;50.808;3.422;2024-01-30T11:54:07;17.13;;;3.35;;
83659;SDS011;73632;50.808;3.422;2024-01-30T11:56:33;8.77;;;2.42;;
83659;SDS011;73632;50.808;3.422;2024-01-30T11:58:58;7.97;;;2.45;;
83659;SDS011;73632;50.808;3.422;2024-01-30T12:01:25;4.88;;;1.63;;
83659;SDS011;73632;50.808;3.422;2024-01-30T12:03:51;10.88;;;1.40;;
83659;SDS011;73632;50.808;3.422;2024-01-30T12:06:17;4.97;;;1.10;;
83659;SDS011;73632;50.808;3.422;2024-01-30T12:08:42;8.75;;;1.45;;
83659;SDS011;73632;50.808;3.422;2024-01-30T12:11:09;4.95;;;1.23;;
83659;SDS011;73632;50.808;3.422;2024-01-30T12:13:34;7.43;;;1.25;;
83659;SDS011;73632;50.808;3.422;2024-01-30T12:16:00;4.07;;;1.20;;
83659;SDS011;73632;50.808;3.422;2024-01-30T12:18:26;5.90;;;1.30;;
83659;SDS011;73632;50.808;3.422;2024-01-30T12:21:00;5.63;;;1.10;;
83659;SDS011;73632;50.808;3.422;2024-01-30T12:23:29;12.40;;;1.90;;
83659;SDS011;73632;50.808;3.422;2024-01-30T12:25:54;7.70;;;1.92;;
83659;SDS011;73632;50.808;3.422;2024-01-30T12:28:20;5.63;;;1.13;;
83659;SDS011;73632;50.808;3.422;2024-01-30T12:30:46;8.93;;;1.40;;
83659;SDS011;73632;50.808;3.422;2024-01-30T12:33:18;14.30;;;2.10;;
83659;SDS011;73632;50.808;3.422;2024-01-30T12:35:47;5.78;;;1.25;;
83659;SDS011;73632;50.808;3.422;2024-01-30T12:38:15;6.82;;;2.10;;
83659;SDS011;73632;50.808;3.422;2024-01-30T12:40:40;4.75;;;1.83;;
83659;SDS011;73632;50.808;3.422;2024-01-30T12:43:06;8.15;;;1.30;;
83659;SDS011;73632;50.808;3.422;2024-01-30T12:45:31;5.60;;;1.00;;
83659;SDS011;73632;50.808;3.422;2024-01-30T12:47:57;10.00;;;1.55;;
83659;SDS011;73632;50.808;3.422;2024-01-30T12:50:23;6.25;;;1.70;;
83659;SDS011;73632;50.808;3.422;2024-01-30T12:52:48;8.95;;;1.23;;
83659;SDS011;73632;50.808;3.422;2024-01-30T12:55:14;3.92;;;0.88;;
83659;SDS011;73632;50.808;3.422;2024-01-30T12:57:40;7.28;;;1.95;;
83659;SDS011;73632;50.808;3.422;2024-01-30T13:00:05;8.93;;;1.60;;
83659;SDS011;73632;50.808;3.422;2024-01-30T13:02:33;6.13;;;1.30;;
83659;SDS011;73632;50.808;3.422;2024-01-30T13:05:02;4.50;;;1.10;;
83659;SDS011;73632;50.808;3.422;2024-01-30T13:07:27;3.80;;;0.70;;
83659;SDS011;73632;50.808;3.422;2024-01-30T13:09:53;6.82;;;1.30;;
83659;SDS011;73632;50.808;3.422;2024-01-30T13:12:18;4.97;;;1.00;;
83659;SDS011;73632;50.808;3.422;2024-01-30T13:14:44;3.78;;;1.10;;
83659;SDS011;73632;50.808;3.422;2024-01-30T13:17:09;3.75;;;1.20;;
83659;SDS011;73632;50.808;3.422;2024-01-30T13:19:34;2.22;;;0.70;;
83659;SDS011;73632;50.808;3.422;2024-01-30T13:22:00;5.20;;;1.17;;
83659;SDS011;73632;50.808;3.422;2024-01-30T13:24:25;6.43;;;1.42;;
83659;SDS011;73632;50.808;3.422;2024-01-30T13:26:51;3.20;;;1.13;;
83659;SDS011;73632;50.808;3.422;2024-01-30T13:29:18;10.90;;;2.53;;
83659;SDS011;73632;50.808;3.422;2024-01-30T13:31:43;6.65;;;0.98;;
83659;SDS011;73632;50.808;3.422;2024-01-30T13:34:11;6.25;;;0.98;;
83659;SDS011;73632;50.808;3.422;2024-01-30T13:36:37;4.90;;;1.17;;
83659;SDS011;73632;50.808;3.422;2024-01-30T13:39:03;6.88;;;1.10;;
83659;SDS011;73632;50.808;3.422;2024-01-30T13:41:29;4.60;;;0.85;;
83659;SDS011;73632;50.808;3.422;2024-01-30T13:43:55;7.05;;;1.33;;
83659;SDS011;73632;50.808;3.422;2024-01-30T13:46:20;2.85;;;0.70;;
83659;SDS011;73632;50.808;3.422;2024-01-30T13:48:46;6.28;;;0.95;;
83659;SDS011;73632;50.808;3.422;2024-01-30T13:51:11;1.08;;;0.65;;
83659;SDS011;73632;50.808;3.422;2024-01-30T13:53:38;4.68;;;1.00;;
83659;SDS011;73632;50.808;3.422;2024-01-30T13:56:03;9.98;;;2.70;;
83659;SDS011;73632;50.808;3.422;2024-01-30T13:58:29;12.50;;;2.92;;
83659;SDS011;73632;50.808;3.422;2024-01-30T14:00:54;6.47;;;2.35;;
83659;SDS011;73632;50.808;3.422;2024-01-30T14:03:20;8.35;;;1.65;;
83659;SDS011;73632;50.808;3.422;2024-01-30T14:05:45;6.13;;;1.00;;
83659;SDS011;73632;50.808;3.422;2024-01-30T14:08:11;5.72;;;0.88;;
83659;SDS011;73632;50.808;3.422;2024-01-30T14:10:36;7.15;;;1.05;;
83659;SDS011;73632;50.808;3.422;2024-01-30T14:13:02;8.43;;;1.10;;
83659;SDS011;73632;50.808;3.422;2024-01-30T14:15:27;11.75;;;1.23;;
83659;SDS011;73632;50.808;3.422;2024-01-30T14:17:53;8.23;;;1.50;;
83659;SDS011;73632;50.808;3.422;2024-01-30T14:20:19;7.57;;;0.93;;
83659;SDS011;73632;50.808;3.422;2024-01-30T14:22:44;5.78;;;1.05;;
83659;SDS011;73632;50.808;3.422;2024-01-30T14:25:10;6.03;;;1.25;;
83659;SDS011;73632;50.808;3.422;2024-01-30T14:27:36;6.32;;;1.65;;
83659;SDS011;73632;50.808;3.422;2024-01-30T14:30:01;5.80;;;1.38;;
83659;SDS011;73632;50.808;3.422;2024-01-30T14:32:28;7.25;;;1.00;;
83659;SDS011;73632;50.808;3.422;2024-01-30T14:34:53;5.88;;;1.60;;